Предлагаем Вашему вниманию английскую версию страницы: AUTOTAF.ME 37537 - aviation weather forecast Tsalka

AUTOTAF 37537 - авиапрогноз Цалка

Сегодня рассвет 03:51 UTC, восход солнца 04:21 UTC,
местный полдень 09:15 UTC, заход солнца 14:10 UTC,
наступление темноты 14:40 UTC.

Краткий прогноз 37537 на 9 часов

AUTOTAF.ME 37537 252000Z 2521/2606 24004MPS CAVOK

Детальный прогноз 37537 на 24 часа

AUTOTAF.ME 37537 252000Z 2521/2621 24004MPS 9999 FEW260 TX06/2612Z TNM07/2521Z

Подробный табличный прогноз

Время (UTC) miniAUTOTAF на 3 ч WX FZLVL
M AGL
ICE TURB Т
(°С)
Тd
(°С)
f(%) QNH
(гПа)
WIND/T
18 24004MPS 9999 SKC SFC -6 -10 75 1022 ...
21 24004MPS 9999 FEW260 SFC -7 -11 71 1022 ...
26.01.2021
00 25004MPS 9999 OVC138 SFC MOD FL190/FL200 -7 -11 74 1022 ...
03 26004MPS 9999 BKN114 SFC FBL FL190/FL200 -6 -10 72 1022 ...
06 26004MPS 9999 OVC130 SFC -3 -8 69 1022 ...
09 25003MPS 9999 SCT210 900 4 -2 62 1019 ...
12 25003MPS 9999 FEW210 630 6 -1 63 1018 ...
15 25004MPS 9999 SKC SFC -1 -3 83 1021 ...
18 25003MPS 9999 FEW260 30 -4 -6 82 1021 ...
21 24003MPS 9999 SCT230 SFC -4 -8 78 1021 ...
27.01.2021
00 24003MPS 9999 FEW260 SFC -5 -8 78 1021 ...
03 24003MPS 9999 SCT240 SFC -6 -9 77 1020 ...
06 22003MPS 9999 BKN139 630 MOD FL190/FL200 -4 -8 73 1019 ...
09 17003MPS 9999 OVC139 1500 FBL FL190/FL200 MOD FL170/FL180 3 -3 63 1016 ...
12 20003MPS 9999 OVC139 1500 FBL FL190/FL200 MOD FL170/FL180 4 -1 70 1013 ...
15 22004MPS 9999 OVC138 110 FBL FL190/FL200 -2 -4 84 1015 ...


Широта 41.6°, долгота 44.1°, высота 1457 м абс.
Средняя высота рельефа местности 1834 м абс.
Прогнозы обновляются четыре раза в сутки: в 02, 08, 14, 20 ч всемирного времени.


Выбрать прогноз по другой модели Цалка
Онлайн-сводка гроз по Цалка (для РФ и ближнего зарубежья)
Карта фактических гроз в окрестностях Цалка
Динамические прогностические карты (ventusky.com)
Прогностическая карта высоты нижней границы облаков по Цалка (windy.com)
Выбрать другой город

Прогноз предназначен для личного научно-познавательного использования частными лицами
и не предназначен для принятия важных решений и выполнения реальных полётов воздушных судов

При копировании или ином использовании любых материалов данного сайта ссылка на © meteocenter.asia обязательна.

0.68/1.1